PWSweather.com
Personal Weather Stations
Station Observations
SBERGENWX
Wood Ridge, NJ 07075

Wood Ridge, NJ 07075

Lat: 40.851667, Lon: -74.088131

Elevation: 177

Station Type: Davis Vantage Vue

http://201weather.com/

High Low Average
Temperature 46.6°F8.1°C 25.9°F-3.4°C 35.1°F1.7°C
Dew Point 43.3°F6.3°C 9.1°F-12.7°C 23.7°F-4.6°C
Winds 4.6 mph 7.4 kmh Calm Calm 1.0 mph S1.6 kmh S
Wind Gusts 10.4 mph16.7 kmh -- 3.0 mph4.8 kmh
Humidity 89% 48% 64%
Pressure 30.54 in1034.2 mb 29.92 in1013.2 mb -
Precipitation 0.00 in0.0 mm - -
Hour Temp Dew Point Humidity Winds Wind Gusts Pressure Precip Precip Rate Daily Precip Total
12:00 AM 25.9°F-3.4°C 10.2°F-12.1°C 51% Calm Calm 1.2 mph1.9 kmh 30.56 in1034.9 mb - 0.00 in0.0 mm 0.00 in0.0 mm
12:15 AM 25.8°F-3.4°C 10.6°F-11.9°C 52% Calm Calm -- 30.56 in1034.9 mb - 0.00 in0.0 mm 0.00 in0.0 mm
12:30 AM 25.7°F-3.5°C 10.1°F-12.2°C 51% Calm Calm 1.2 mph1.9 kmh 30.56 in1034.9 mb - 0.00 in0.0 mm 0.00 in0.0 mm
12:45 AM 25.9°F-3.4°C 9.3°F-12.6°C 49% 1.2 mph S1.9 kmh S 3.5 mph5.6 kmh 30.54 in1034.2 mb - 0.00 in0.0 mm 0.00 in0.0 mm
01:00 AM 26.0°F-3.3°C 9.4°F-12.6°C 49% 1.2 mph S1.9 kmh S 1.2 mph1.9 kmh 30.54 in1034.2 mb - 0.00 in0.0 mm 0.00 in0.0 mm
01:15 AM 26.1°F-3.3°C 10.0°F-12.2°C 50% 1.2 mph SSW1.9 kmh SSW 3.5 mph5.6 kmh 30.53 in1033.9 mb - 0.00 in0.0 mm 0.00 in0.0 mm
01:30 AM 26.3°F-3.2°C 9.7°F-12.4°C 49% 1.2 mph SSW1.9 kmh SSW 4.6 mph7.4 kmh 30.52 in1033.5 mb - 0.00 in0.0 mm 0.00 in0.0 mm
01:45 AM 26.3°F-3.2°C 10.2°F-12.1°C 50% 1.2 mph SSW1.9 kmh SSW 3.5 mph5.6 kmh 30.52 in1033.5 mb - 0.00 in0.0 mm 0.00 in0.0 mm
02:00 AM 26.3°F-3.2°C 10.2°F-12.1°C 50% Calm Calm 1.2 mph1.9 kmh 30.52 in1033.5 mb - 0.00 in0.0 mm 0.00 in0.0 mm
02:15 AM 26.1°F-3.3°C 10.4°F-12.0°C 51% Calm Calm 1.2 mph1.9 kmh 30.51 in1033.2 mb - 0.00 in0.0 mm 0.00 in0.0 mm
02:30 AM 26.0°F-3.3°C 10.3°F-12.1°C 51% Calm Calm 1.2 mph1.9 kmh 30.50 in1032.8 mb - 0.00 in0.0 mm 0.00 in0.0 mm
02:45 AM 25.9°F-3.4°C 9.8°F-12.3°C 50% Calm Calm 2.3 mph3.7 kmh 30.50 in1032.8 mb - 0.00 in0.0 mm 0.00 in0.0 mm
03:00 AM 26.2°F-3.2°C 9.1°F-12.7°C 48% 1.2 mph S1.9 kmh S 2.3 mph3.7 kmh 30.49 in1032.5 mb - 0.00 in0.0 mm 0.00 in0.0 mm
03:15 AM 26.1°F-3.3°C 9.1°F-12.7°C 48% Calm Calm 1.2 mph1.9 kmh 30.48 in1032.2 mb - 0.00 in0.0 mm 0.00 in0.0 mm
03:30 AM 26.3°F-3.2°C 9.2°F-12.7°C 48% 1.2 mph S1.9 kmh S 4.6 mph7.4 kmh 30.48 in1032.2 mb - 0.00 in0.0 mm 0.00 in0.0 mm
03:45 AM 26.6°F-3.0°C 9.5°F-12.5°C 48% 1.2 mph SSW1.9 kmh SSW 1.2 mph1.9 kmh 30.47 in1031.8 mb - 0.00 in0.0 mm 0.00 in0.0 mm
04:00 AM 27.0°F-2.8°C 10.8°F-11.8°C 50% 2.3 mph SSW3.7 kmh SSW 8.1 mph13.0 kmh 30.46 in1031.5 mb - 0.00 in0.0 mm 0.00 in0.0 mm
04:15 AM 27.4°F-2.6°C 12.9°F-10.6°C 54% 2.3 mph S3.7 kmh S 10.4 mph16.7 kmh 30.45 in1031.2 mb - 0.00 in0.0 mm 0.00 in0.0 mm
04:30 AM 27.5°F-2.5°C 13.8°F-10.1°C 56% 2.3 mph SSW3.7 kmh SSW 4.6 mph7.4 kmh 30.45 in1031.2 mb - 0.00 in0.0 mm 0.00 in0.0 mm
04:45 AM 27.6°F-2.4°C 14.7°F-9.6°C 58% 1.2 mph SW1.9 kmh SW 2.3 mph3.7 kmh 30.45 in1031.2 mb - 0.00 in0.0 mm 0.00 in0.0 mm
05:00 AM 27.6°F-2.4°C 14.8°F-9.6°C 58% 1.2 mph SSW1.9 kmh SSW 1.2 mph1.9 kmh 30.44 in1030.8 mb - 0.00 in0.0 mm 0.00 in0.0 mm
05:15 AM 27.8°F-2.3°C 14.1°F-9.9°C 56% 2.3 mph S3.7 kmh S 3.5 mph5.6 kmh 30.43 in1030.5 mb - 0.00 in0.0 mm 0.00 in0.0 mm
05:30 AM 28.0°F-2.2°C 13.5°F-10.3°C 54% 3.5 mph SSW5.6 kmh SSW 6.9 mph11.1 kmh 30.41 in1029.8 mb - 0.00 in0.0 mm 0.00 in0.0 mm
05:45 AM 28.2°F-2.1°C 14.1°F-9.9°C 55% 1.2 mph SSW1.9 kmh SSW 4.6 mph7.4 kmh 30.42 in1030.1 mb - 0.00 in0.0 mm 0.00 in0.0 mm
06:00 AM 28.2°F-2.1°C 14.5°F-9.7°C 56% Calm Calm 3.5 mph5.6 kmh 30.39 in1029.1 mb - 0.00 in0.0 mm 0.00 in0.0 mm
06:15 AM 28.1°F-2.2°C 16.4°F-8.7°C 61% 2.3 mph S3.7 kmh S 3.5 mph5.6 kmh 30.38 in1028.8 mb - 0.00 in0.0 mm 0.00 in0.0 mm
06:30 AM 28.1°F-2.2°C 17.1°F-8.3°C 63% 2.3 mph S3.7 kmh S 5.8 mph9.3 kmh 30.37 in1028.4 mb - 0.00 in0.0 mm 0.00 in0.0 mm
06:45 AM 28.3°F-2.1°C 17.3°F-8.2°C 63% 1.2 mph SSW1.9 kmh SSW 4.6 mph7.4 kmh 30.38 in1028.8 mb - 0.00 in0.0 mm 0.00 in0.0 mm
07:00 AM 28.4°F-2.0°C 17.4°F-8.1°C 63% 1.2 mph SSW1.9 kmh SSW 2.3 mph3.7 kmh 30.38 in1028.8 mb - 0.00 in0.0 mm 0.00 in0.0 mm
07:15 AM 28.3°F-2.1°C 17.7°F-7.9°C 64% Calm Calm -- 30.38 in1028.8 mb - 0.00 in0.0 mm 0.00 in0.0 mm
07:30 AM 28.3°F-2.1°C 17.7°F-7.9°C 64% 2.3 mph S3.7 kmh S 4.6 mph7.4 kmh 30.38 in1028.8 mb - 0.00 in0.0 mm 0.00 in0.0 mm
07:45 AM 28.6°F-1.9°C 18.3°F-7.6°C 65% 2.3 mph SSW3.7 kmh SSW 4.6 mph7.4 kmh 30.37 in1028.4 mb - 0.00 in0.0 mm 0.00 in0.0 mm
08:00 AM 28.7°F-1.8°C 18.8°F-7.3°C 66% 1.2 mph S1.9 kmh S 3.5 mph5.6 kmh 30.37 in1028.4 mb - 0.00 in0.0 mm 0.00 in0.0 mm
08:15 AM 28.7°F-1.8°C 18.8°F-7.3°C 66% 1.2 mph SSW1.9 kmh SSW 2.3 mph3.7 kmh 30.36 in1028.1 mb - 0.00 in0.0 mm 0.00 in0.0 mm
08:30 AM 28.8°F-1.8°C 19.2°F-7.1°C 67% Calm Calm 1.2 mph1.9 kmh 30.35 in1027.8 mb - 0.00 in0.0 mm 0.00 in0.0 mm
08:45 AM 29.0°F-1.7°C 19.8°F-6.8°C 68% 1.2 mph S1.9 kmh S 4.6 mph7.4 kmh 30.35 in1027.8 mb - 0.00 in0.0 mm 0.00 in0.0 mm
09:00 AM 29.0°F-1.7°C 19.8°F-6.8°C 68% 1.2 mph S1.9 kmh S 3.5 mph5.6 kmh 30.34 in1027.4 mb - 0.00 in0.0 mm 0.00 in0.0 mm
09:15 AM 29.2°F-1.6°C 19.9°F-6.7°C 68% 1.2 mph SSE1.9 kmh SSE 3.5 mph5.6 kmh 30.35 in1027.8 mb - 0.00 in0.0 mm 0.00 in0.0 mm
09:30 AM 29.5°F-1.4°C 20.2°F-6.6°C 68% Calm Calm 1.2 mph1.9 kmh 30.35 in1027.8 mb - 0.00 in0.0 mm 0.00 in0.0 mm
09:45 AM 29.8°F-1.2°C 20.2°F-6.6°C 67% 1.2 mph SSW1.9 kmh SSW 3.5 mph5.6 kmh 30.35 in1027.8 mb - 0.00 in0.0 mm 0.00 in0.0 mm
10:00 AM 30.1°F-1.1°C 20.5°F-6.4°C 67% 1.2 mph S1.9 kmh S 3.5 mph5.6 kmh 30.34 in1027.4 mb - 0.00 in0.0 mm 0.00 in0.0 mm
10:15 AM 30.3°F-0.9°C 20.3°F-6.5°C 66% 1.2 mph SW1.9 kmh SW 2.3 mph3.7 kmh 30.33 in1027.1 mb - 0.00 in0.0 mm 0.00 in0.0 mm
10:30 AM 30.7°F-0.7°C 20.3°F-6.5°C 65% 1.2 mph S1.9 kmh S 2.3 mph3.7 kmh 30.32 in1026.8 mb - 0.00 in0.0 mm 0.00 in0.0 mm
10:45 AM 31.0°F-0.6°C 20.2°F-6.6°C 64% 2.3 mph SW3.7 kmh SW 3.5 mph5.6 kmh 30.32 in1026.8 mb - 0.00 in0.0 mm 0.00 in0.0 mm
11:00 AM 31.4°F-0.3°C 20.6°F-6.3°C 64% 2.3 mph SSW3.7 kmh SSW 3.5 mph5.6 kmh 30.32 in1026.8 mb - 0.00 in0.0 mm 0.00 in0.0 mm
11:15 AM 31.8°F-0.1°C 21.0°F-6.1°C 64% Calm Calm 2.3 mph3.7 kmh 30.31 in1026.4 mb - 0.00 in0.0 mm 0.00 in0.0 mm
11:30 AM 32.4°F0.2°C 21.2°F-6.0°C 63% 2.3 mph S3.7 kmh S 4.6 mph7.4 kmh 30.30 in1026.1 mb - 0.00 in0.0 mm 0.00 in0.0 mm
11:45 AM 32.9°F0.5°C 20.5°F-6.4°C 60% 3.5 mph SSW5.6 kmh SSW 6.9 mph11.1 kmh 30.30 in1026.1 mb - 0.00 in0.0 mm 0.00 in0.0 mm
12:00 PM 33.1°F0.6°C 20.7°F-6.3°C 60% 2.3 mph S3.7 kmh S 3.5 mph5.6 kmh 30.30 in1026.1 mb - 0.00 in0.0 mm 0.00 in0.0 mm
12:15 PM 33.3°F0.7°C 20.9°F-6.2°C 60% Calm Calm 1.2 mph1.9 kmh 30.29 in1025.7 mb - 0.00 in0.0 mm 0.00 in0.0 mm
12:30 PM 33.5°F0.8°C 20.7°F-6.3°C 59% 3.5 mph SSW5.6 kmh SSW 5.8 mph9.3 kmh 30.27 in1025.1 mb - 0.00 in0.0 mm 0.00 in0.0 mm
12:45 PM 33.8°F1.0°C 21.4°F-5.9°C 60% 1.2 mph SSW1.9 kmh SSW 2.3 mph3.7 kmh 30.27 in1025.1 mb - 0.00 in0.0 mm 0.00 in0.0 mm
01:00 PM 34.1°F1.2°C 21.3°F-5.9°C 59% Calm Calm -- 30.26 in1024.7 mb - 0.00 in0.0 mm 0.00 in0.0 mm
01:15 PM 34.5°F1.4°C 22.0°F-5.6°C 60% Calm Calm -- 30.25 in1024.4 mb - 0.00 in0.0 mm 0.00 in0.0 mm
01:30 PM 34.8°F1.6°C 21.9°F-5.6°C 59% Calm Calm 1.2 mph1.9 kmh 30.24 in1024.0 mb - 0.00 in0.0 mm 0.00 in0.0 mm
01:45 PM 35.3°F1.8°C 22.0°F-5.6°C 58% Calm Calm 1.2 mph1.9 kmh 30.22 in1023.4 mb - 0.00 in0.0 mm 0.00 in0.0 mm
02:00 PM 36.2°F2.3°C 22.8°F-5.1°C 58% 2.3 mph SSW3.7 kmh SSW 3.5 mph5.6 kmh 30.21 in1023.0 mb - 0.00 in0.0 mm 0.00 in0.0 mm
02:15 PM 37.3°F2.9°C 23.0°F-5.0°C 56% 1.2 mph S1.9 kmh S 3.5 mph5.6 kmh 30.20 in1022.7 mb - 0.00 in0.0 mm 0.00 in0.0 mm
02:30 PM 37.8°F3.2°C 23.5°F-4.7°C 56% 3.5 mph SSW5.6 kmh SSW 5.8 mph9.3 kmh 30.19 in1022.4 mb - 0.00 in0.0 mm 0.00 in0.0 mm
02:45 PM 38.0°F3.3°C 24.2°F-4.3°C 57% 4.6 mph SSW7.4 kmh SSW 6.9 mph11.1 kmh 30.19 in1022.4 mb - 0.00 in0.0 mm 0.00 in0.0 mm
03:00 PM 38.5°F3.6°C 24.6°F-4.1°C 57% 3.5 mph SSW5.6 kmh SSW 4.6 mph7.4 kmh 30.18 in1022.0 mb - 0.00 in0.0 mm 0.00 in0.0 mm
03:15 PM 39.1°F3.9°C 25.1°F-3.8°C 57% 1.2 mph SSW1.9 kmh SSW 3.5 mph5.6 kmh 30.16 in1021.3 mb - 0.00 in0.0 mm 0.00 in0.0 mm
03:30 PM 40.0°F4.4°C 25.6°F-3.6°C 56% Calm Calm 1.2 mph1.9 kmh 30.16 in1021.3 mb - 0.00 in0.0 mm 0.00 in0.0 mm
03:45 PM 40.5°F4.7°C 26.0°F-3.3°C 56% 1.2 mph SE1.9 kmh SE 3.5 mph5.6 kmh 30.15 in1021.0 mb - 0.00 in0.0 mm 0.00 in0.0 mm
04:00 PM 40.8°F4.9°C 26.3°F-3.2°C 56% 1.2 mph S1.9 kmh S 3.5 mph5.6 kmh 30.14 in1020.7 mb - 0.00 in0.0 mm 0.00 in0.0 mm
04:15 PM 41.2°F5.1°C 26.7°F-2.9°C 56% 2.3 mph SE3.7 kmh SE 3.5 mph5.6 kmh 30.13 in1020.3 mb - 0.00 in0.0 mm 0.00 in0.0 mm
04:30 PM 41.7°F5.4°C 27.6°F-2.4°C 57% 1.2 mph S1.9 kmh S 1.2 mph1.9 kmh 30.13 in1020.3 mb - 0.00 in0.0 mm 0.00 in0.0 mm
04:45 PM 42.2°F5.7°C 28.4°F-2.0°C 58% 1.2 mph SSE1.9 kmh SSE 2.3 mph3.7 kmh 30.12 in1020.0 mb - 0.00 in0.0 mm 0.00 in0.0 mm
05:00 PM 42.5°F5.8°C 29.2°F-1.6°C 59% 1.2 mph SSE1.9 kmh SSE 2.3 mph3.7 kmh 30.11 in1019.6 mb - 0.00 in0.0 mm 0.00 in0.0 mm
05:15 PM 42.7°F5.9°C 29.8°F-1.2°C 60% 1.2 mph SE1.9 kmh SE 2.3 mph3.7 kmh 30.10 in1019.3 mb - 0.00 in0.0 mm 0.00 in0.0 mm
05:30 PM 42.7°F5.9°C 30.6°F-0.8°C 62% Calm Calm -- 30.09 in1019.0 mb - 0.00 in0.0 mm 0.00 in0.0 mm
05:45 PM 43.2°F6.2°C 31.8°F-0.1°C 64% Calm Calm 1.2 mph1.9 kmh 30.09 in1019.0 mb - 0.00 in0.0 mm 0.00 in0.0 mm
06:00 PM 43.3°F6.3°C 31.9°F-0.1°C 64% 2.3 mph SSE3.7 kmh SSE 2.3 mph3.7 kmh 30.08 in1018.6 mb - 0.00 in0.0 mm 0.00 in0.0 mm
06:15 PM 43.0°F6.1°C 31.6°F-0.2°C 64% 1.2 mph SSE1.9 kmh SSE 2.3 mph3.7 kmh 30.08 in1018.6 mb - 0.00 in0.0 mm 0.00 in0.0 mm
06:30 PM 42.7°F5.9°C 31.4°F-0.3°C 64% 1.2 mph SSE1.9 kmh SSE 3.5 mph5.6 kmh 30.06 in1017.9 mb - 0.00 in0.0 mm 0.00 in0.0 mm
06:45 PM 42.6°F5.9°C 31.3°F-0.4°C 64% Calm Calm 1.2 mph1.9 kmh 30.06 in1017.9 mb - 0.00 in0.0 mm 0.00 in0.0 mm
07:00 PM 42.6°F5.9°C 31.6°F-0.2°C 65% Calm Calm -- 30.05 in1017.6 mb - 0.00 in0.0 mm 0.00 in0.0 mm
07:15 PM 42.5°F5.8°C 31.6°F-0.2°C 65% Calm Calm -- 30.05 in1017.6 mb - 0.00 in0.0 mm 0.00 in0.0 mm
07:30 PM 42.5°F5.8°C 31.9°F-0.1°C 66% Calm Calm -- 30.05 in1017.6 mb - 0.00 in0.0 mm 0.00 in0.0 mm
07:45 PM 42.2°F5.7°C 32.4°F0.2°C 68% Calm Calm -- 30.04 in1017.3 mb - 0.00 in0.0 mm 0.00 in0.0 mm
08:00 PM 41.9°F5.5°C 32.8°F0.4°C 70% Calm Calm -- 30.04 in1017.3 mb - 0.00 in0.0 mm 0.00 in0.0 mm
08:15 PM 41.5°F5.3°C 33.1°F0.6°C 72% Calm Calm -- 30.03 in1016.9 mb - 0.00 in0.0 mm 0.00 in0.0 mm
08:30 PM 41.3°F5.2°C 33.6°F0.9°C 74% Calm Calm -- 30.02 in1016.6 mb - 0.00 in0.0 mm 0.00 in0.0 mm
08:45 PM 41.3°F5.2°C 34.6°F1.4°C 77% Calm Calm -- 30.02 in1016.6 mb - 0.00 in0.0 mm 0.00 in0.0 mm
09:00 PM 41.2°F5.1°C 34.9°F1.6°C 78% Calm Calm -- 30.02 in1016.6 mb - 0.00 in0.0 mm 0.00 in0.0 mm
09:15 PM 41.1°F5.1°C 35.1°F1.7°C 79% Calm Calm -- 30.01 in1016.3 mb - 0.00 in0.0 mm 0.00 in0.0 mm
09:30 PM 41.4°F5.2°C 35.4°F1.9°C 79% 1.2 mph SSE1.9 kmh SSE 4.6 mph7.4 kmh 29.99 in1015.6 mb - 0.00 in0.0 mm 0.00 in0.0 mm
09:45 PM 41.7°F5.4°C 35.7°F2.1°C 79% Calm Calm 1.2 mph1.9 kmh 29.98 in1015.2 mb - 0.00 in0.0 mm 0.00 in0.0 mm
10:00 PM 41.8°F5.4°C 35.8°F2.1°C 79% Calm Calm -- 29.98 in1015.2 mb - 0.00 in0.0 mm 0.00 in0.0 mm
10:15 PM 42.2°F5.7°C 36.2°F2.3°C 79% Calm Calm -- 29.98 in1015.2 mb - 0.00 in0.0 mm 0.00 in0.0 mm
10:30 PM 42.6°F5.9°C 36.9°F2.7°C 80% Calm Calm 1.2 mph1.9 kmh 29.98 in1015.2 mb - 0.00 in0.0 mm 0.00 in0.0 mm
10:45 PM 43.4°F6.3°C 37.6°F3.1°C 80% Calm Calm 1.2 mph1.9 kmh 29.98 in1015.2 mb - 0.00 in0.0 mm 0.00 in0.0 mm
11:00 PM 43.6°F6.4°C 37.9°F3.3°C 80% 1.2 mph SE1.9 kmh SE 3.5 mph5.6 kmh 29.96 in1014.6 mb - 0.00 in0.0 mm 0.00 in0.0 mm
11:15 PM 43.7°F6.5°C 38.3°F3.5°C 81% 1.2 mph S1.9 kmh S 3.5 mph5.6 kmh 29.95 in1014.2 mb - 0.00 in0.0 mm 0.00 in0.0 mm
11:30 PM 44.0°F6.7°C 38.9°F3.8°C 82% Calm Calm 2.3 mph3.7 kmh 29.95 in1014.2 mb - 0.00 in0.0 mm 0.00 in0.0 mm
11:45 PM 44.6°F7.0°C 40.0°F4.4°C 84% 1.2 mph S1.9 kmh S 2.3 mph3.7 kmh 29.94 in1013.9 mb - 0.00 in0.0 mm 0.00 in0.0 mm